TC1653 SAEZ-SAVE
Flight info
| Callsign | TC1653 |
|---|---|
| Flight time | N/A |
| Altitude | FL320 |
| Route | TORUL1 TORUL UT654 BIXIM UW41 NITLO |
| Aircraft | B722/M-VD/C |
Departure
| Time | 2026-05-06 23:00 |
|---|---|
| Airport | Ezeiza International Airport - Ministro Pistarini (SAEZ) |
Arrival
| Time | N/A |
|---|---|
| Airport | Esquel Brigadier Antonio Parodi International Airport (SAVE) |
| Time | Latitude | Longitude | Altitude | Speed | Heading |
|---|---|---|---|---|---|
| 2026-05-06 22:15 | -34.79917 | -58.52709 | 78 ft | 0 kts | 184° |
| 2026-05-06 22:44 | -34.79908 | -58.52709 | 78 ft | 3 kts | 184° |
| 2026-05-06 22:44 | -34.79890 | -58.52707 | 75 ft | 3 kts | 184° |
| 2026-05-06 22:45 | -34.79872 | -58.52706 | 70 ft | 3 kts | 184° |
| 2026-05-06 22:45 | -34.79855 | -58.52704 | 69 ft | 2 kts | 184° |
| 2026-05-06 22:45 | -34.79843 | -58.52703 | 67 ft | 0 kts | 184° |
| 2026-05-06 22:49 | -34.79844 | -58.52703 | 67 ft | 0 kts | 189° |
| 2026-05-06 22:49 | -34.79850 | -58.52708 | 72 ft | 2 kts | 231° |
| 2026-05-06 22:50 | -34.79847 | -58.52725 | 72 ft | 3 kts | 320° |
| 2026-05-06 22:50 | -34.79811 | -58.52761 | 71 ft | 10 kts | 319° |
| 2026-05-06 22:50 | -34.79763 | -58.52818 | 73 ft | 0 kts | 314° |
| 2026-05-06 22:50 | -34.79760 | -58.52822 | 71 ft | 2 kts | 314° |
| 2026-05-06 22:51 | -34.79735 | -58.52860 | 70 ft | 8 kts | 288° |
| 2026-05-06 22:51 | -34.79760 | -58.52933 | 74 ft | 12 kts | 231° |
| 2026-05-06 22:51 | -34.79828 | -58.53025 | 78 ft | 17 kts | 223° |
| 2026-05-06 22:51 | -34.79927 | -58.53145 | 72 ft | 22 kts | 225° |
| 2026-05-06 22:52 | -34.80039 | -58.53280 | 74 ft | 24 kts | 225° |
| 2026-05-06 22:52 | -34.80158 | -58.53426 | 74 ft | 25 kts | 225° |
| 2026-05-06 22:52 | -34.80283 | -58.53580 | 78 ft | 26 kts | 226° |
| 2026-05-06 22:52 | -34.80401 | -58.53700 | 78 ft | 20 kts | 206° |
| 2026-05-06 22:53 | -34.80537 | -58.53738 | 73 ft | 21 kts | 179° |
| 2026-05-06 22:53 | -34.80683 | -58.53701 | 73 ft | 22 kts | 162° |
| 2026-05-06 22:53 | -34.80823 | -58.53650 | 81 ft | 18 kts | 164° |
| 2026-05-06 22:53 | -34.80950 | -58.53606 | 80 ft | 20 kts | 166° |
| 2026-05-06 22:54 | -34.81083 | -58.53560 | 81 ft | 18 kts | 167° |
| 2026-05-06 22:54 | -34.81209 | -58.53582 | 81 ft | 19 kts | 193° |
| 2026-05-06 22:54 | -34.81346 | -58.53590 | 75 ft | 21 kts | 185° |
| 2026-05-06 22:54 | -34.81488 | -58.53641 | 78 ft | 22 kts | 205° |
| 2026-05-06 22:55 | -34.81614 | -58.53754 | 69 ft | 23 kts | 224° |
| 2026-05-06 22:55 | -34.81725 | -58.53901 | 78 ft | 24 kts | 242° |
| 2026-05-06 22:55 | -34.81785 | -58.54056 | 73 ft | 16 kts | 258° |
| 2026-05-06 22:55 | -34.81780 | -58.54197 | 79 ft | 18 kts | 279° |
| 2026-05-06 22:56 | -34.81763 | -58.54351 | 70 ft | 19 kts | 279° |
| 2026-05-06 22:56 | -34.81750 | -58.54512 | 70 ft | 19 kts | 268° |
| 2026-05-06 22:56 | -34.81776 | -58.54677 | 80 ft | 21 kts | 262° |
| 2026-05-06 22:56 | -34.81761 | -58.54845 | 71 ft | 19 kts | 283° |
| 2026-05-06 22:57 | -34.81730 | -58.55009 | 76 ft | 21 kts | 281° |
| 2026-05-06 22:57 | -34.81706 | -58.55152 | 70 ft | 14 kts | 282° |
| 2026-05-06 22:57 | -34.81694 | -58.55246 | 83 ft | 11 kts | 266° |
| 2026-05-06 22:57 | -34.81730 | -58.55323 | 81 ft | 10 kts | 213° |
| 2026-05-06 22:58 | -34.81744 | -58.55332 | 82 ft | 0 kts | 198° |
| 2026-05-06 22:58 | -34.81762 | -58.55338 | 81 ft | 5 kts | 192° |
| 2026-05-06 22:59 | -34.81810 | -58.55332 | 85 ft | 9 kts | 159° |
| 2026-05-06 22:59 | -34.81861 | -58.55295 | 85 ft | 12 kts | 143° |
| 2026-05-06 22:59 | -34.81925 | -58.55199 | 85 ft | 20 kts | 110° |
| 2026-05-06 22:59 | -34.81990 | -58.54867 | 84 ft | 67 kts | 102° |
| 2026-05-06 23:00 | -34.82131 | -58.54084 | 88 ft | 120 kts | 102° |
| 2026-05-06 23:00 | -34.82331 | -58.52958 | 270 ft | 141 kts | 98° |
| 2026-05-06 23:00 | -34.82532 | -58.51786 | 605 ft | 143 kts | 99° |
| 2026-05-06 23:00 | -34.82919 | -58.50597 | 741 ft | 160 kts | 118° |
| 2026-05-06 23:01 | -34.83508 | -58.49362 | 1056 ft | 177 kts | 118° |
| 2026-05-06 23:01 | -34.84126 | -58.47993 | 1372 ft | 194 kts | 118° |
| 2026-05-06 23:01 | -34.84810 | -58.46476 | 1688 ft | 216 kts | 118° |
| 2026-05-06 23:01 | -34.85574 | -58.44777 | 2092 ft | 243 kts | 118° |
| 2026-05-06 23:02 | -34.86426 | -58.42878 | 2512 ft | 269 kts | 118° |
| 2026-05-06 23:02 | -34.87369 | -58.40795 | 2932 ft | 293 kts | 118° |
| 2026-05-06 23:02 | -34.88397 | -58.38549 | 3346 ft | 313 kts | 123° |
| 2026-05-06 23:02 | -34.89942 | -58.36626 | 3737 ft | 328 kts | 148° |
| 2026-05-06 23:03 | -34.91738 | -58.35497 | 4104 ft | 339 kts | 160° |
| 2026-05-06 23:03 | -34.94082 | -58.35065 | 4495 ft | 348 kts | 186° |
| 2026-05-06 23:03 | -34.96385 | -58.35957 | 4871 ft | 354 kts | 212° |
| 2026-05-06 23:03 | -34.98185 | -58.37984 | 5252 ft | 358 kts | 234° |
| 2026-05-06 23:04 | -34.99283 | -58.40668 | 5664 ft | 343 kts | 252° |
| 2026-05-06 23:04 | -34.99892 | -58.43322 | 6058 ft | 311 kts | 258° |
| 2026-05-06 23:04 | -35.00288 | -58.45803 | 6431 ft | 287 kts | 261° |
| 2026-05-06 23:04 | -35.00601 | -58.48114 | 6788 ft | 267 kts | 261° |
| 2026-05-06 23:05 | -35.00966 | -58.50251 | 7152 ft | 250 kts | 251° |
| 2026-05-06 23:05 | -35.01744 | -58.52145 | 7527 ft | 255 kts | 239° |
| 2026-05-06 23:05 | -35.02728 | -58.53998 | 7916 ft | 266 kts | 238° |
| 2026-05-06 23:05 | -35.03758 | -58.55934 | 8313 ft | 281 kts | 238° |
| 2026-05-06 23:06 | -35.04838 | -58.57995 | 8734 ft | 295 kts | 238° |
| 2026-05-06 23:06 | -35.05961 | -58.60147 | 9148 ft | 307 kts | 238° |
| 2026-05-06 23:06 | -35.07139 | -58.62373 | 9580 ft | 319 kts | 237° |
| 2026-05-06 23:06 | -35.08363 | -58.64671 | 9944 ft | 328 kts | 237° |
| 2026-05-06 23:07 | -35.09613 | -58.67047 | 10323 ft | 337 kts | 238° |
| 2026-05-06 23:07 | -35.10869 | -58.69488 | 10708 ft | 345 kts | 239° |
| 2026-05-06 23:07 | -35.12159 | -58.71994 | 11097 ft | 351 kts | 239° |
| 2026-05-06 23:07 | -35.13474 | -58.74534 | 11493 ft | 357 kts | 239° |
| 2026-05-06 23:08 | -35.14810 | -58.77100 | 11888 ft | 362 kts | 239° |
| 2026-05-06 23:08 | -35.16167 | -58.79704 | 12311 ft | 365 kts | 239° |
| 2026-05-06 23:08 | -35.17528 | -58.82337 | 12746 ft | 368 kts | 240° |
| 2026-05-06 23:08 | -35.18898 | -58.84987 | 13184 ft | 371 kts | 240° |
| 2026-05-06 23:09 | -35.20279 | -58.87659 | 13609 ft | 373 kts | 240° |
| 2026-05-06 23:09 | -35.21676 | -58.90332 | 14001 ft | 374 kts | 240° |
| 2026-05-06 23:09 | -35.23081 | -58.93011 | 14403 ft | 375 kts | 240° |
| 2026-05-06 23:09 | -35.24491 | -58.95700 | 14806 ft | 376 kts | 240° |
| 2026-05-06 23:10 | -35.25898 | -58.98385 | 15217 ft | 376 kts | 240° |
| 2026-05-06 23:10 | -35.27296 | -59.01080 | 15634 ft | 376 kts | 240° |
| 2026-05-06 23:10 | -35.28688 | -59.03768 | 16063 ft | 375 kts | 241° |
| 2026-05-06 23:10 | -35.30068 | -59.06454 | 16489 ft | 374 kts | 240° |
| 2026-05-06 23:11 | -35.31458 | -59.09143 | 16919 ft | 373 kts | 241° |
| 2026-05-06 23:11 | -35.32831 | -59.11828 | 17360 ft | 372 kts | 241° |
| 2026-05-06 23:11 | -35.34201 | -59.14509 | 17798 ft | 373 kts | 241° |
| 2026-05-06 23:11 | -35.35584 | -59.17219 | 18215 ft | 381 kts | 241° |
| 2026-05-06 23:12 | -35.36996 | -59.19990 | 18622 ft | 384 kts | 241° |
| 2026-05-06 23:12 | -35.38402 | -59.22752 | 19024 ft | 382 kts | 241° |
| 2026-05-06 23:12 | -35.39806 | -59.25505 | 19446 ft | 379 kts | 241° |
| 2026-05-06 23:12 | -35.41199 | -59.28237 | 19878 ft | 377 kts | 241° |
| 2026-05-06 23:13 | -35.42584 | -59.30949 | 20316 ft | 375 kts | 241° |
| 2026-05-06 23:13 | -35.43964 | -59.33649 | 20753 ft | 374 kts | 241° |
| 2026-05-06 23:13 | -35.45340 | -59.36339 | 21211 ft | 372 kts | 241° |
| 2026-05-06 23:13 | -35.46706 | -59.39006 | 21669 ft | 370 kts | 242° |
| 2026-05-06 23:14 | -35.48067 | -59.41662 | 22137 ft | 368 kts | 242° |
| 2026-05-06 23:14 | -35.49424 | -59.44309 | 22599 ft | 366 kts | 242° |
| 2026-05-06 23:14 | -35.50777 | -59.46945 | 23092 ft | 364 kts | 242° |
| 2026-05-06 23:14 | -35.52121 | -59.49563 | 23522 ft | 362 kts | 242° |
| 2026-05-06 23:15 | -35.53448 | -59.52158 | 23929 ft | 360 kts | 242° |
| 2026-05-06 23:15 | -35.54776 | -59.54761 | 24339 ft | 360 kts | 242° |
| 2026-05-06 23:15 | -35.56102 | -59.57359 | 24760 ft | 359 kts | 242° |
| 2026-05-06 23:15 | -35.57408 | -59.59915 | 25176 ft | 359 kts | 242° |
| 2026-05-06 23:16 | -35.58726 | -59.62496 | 25608 ft | 357 kts | 243° |
| 2026-05-06 23:16 | -35.60046 | -59.65076 | 26049 ft | 356 kts | 243° |
| 2026-05-06 23:16 | -35.61354 | -59.67631 | 26461 ft | 355 kts | 243° |
| 2026-05-06 23:16 | -35.62669 | -59.70203 | 26787 ft | 356 kts | 243° |
| 2026-05-06 23:17 | -35.63987 | -59.72782 | 27130 ft | 357 kts | 243° |
| 2026-05-06 23:17 | -35.65306 | -59.75363 | 27447 ft | 358 kts | 243° |
| 2026-05-06 23:17 | -35.66629 | -59.77952 | 27790 ft | 359 kts | 243° |
| 2026-05-06 23:17 | -35.67956 | -59.80548 | 28132 ft | 359 kts | 243° |
| 2026-05-06 23:18 | -35.69280 | -59.83141 | 28476 ft | 359 kts | 243° |
| 2026-05-06 23:18 | -35.70601 | -59.85738 | 28829 ft | 358 kts | 243° |
| 2026-05-06 23:18 | -35.71911 | -59.88323 | 29190 ft | 357 kts | 243° |
| 2026-05-06 23:18 | -35.73221 | -59.90909 | 29550 ft | 356 kts | 243° |
| 2026-05-06 23:19 | -35.74531 | -59.93493 | 29891 ft | 355 kts | 244° |
| 2026-05-06 23:19 | -35.75832 | -59.96057 | 30201 ft | 354 kts | 244° |
| 2026-05-06 23:19 | -35.77133 | -59.98620 | 30506 ft | 352 kts | 244° |
| 2026-05-06 23:19 | -35.78425 | -60.01163 | 30817 ft | 350 kts | 244° |
| 2026-05-06 23:20 | -35.79709 | -60.03688 | 31137 ft | 348 kts | 244° |
| 2026-05-06 23:20 | -35.80991 | -60.06205 | 31478 ft | 346 kts | 244° |
| 2026-05-06 23:20 | -35.82266 | -60.08705 | 31669 ft | 347 kts | 244° |
| 2026-05-06 23:21 | -35.84866 | -60.13830 | 31694 ft | 359 kts | 244° |
| 2026-05-06 23:21 | -35.87543 | -60.19142 | 31683 ft | 373 kts | 243° |
| 2026-05-06 23:22 | -35.90321 | -60.24652 | 31690 ft | 385 kts | 244° |
| 2026-05-06 23:22 | -35.93170 | -60.30338 | 31688 ft | 397 kts | 243° |
| 2026-05-06 23:23 | -35.96174 | -60.36149 | 31689 ft | 408 kts | 243° |
| 2026-05-06 23:23 | -35.99231 | -60.42061 | 31685 ft | 410 kts | 243° |
| 2026-05-06 23:24 | -36.02293 | -60.47989 | 31690 ft | 411 kts | 243° |
| 2026-05-06 23:24 | -36.05363 | -60.53941 | 31682 ft | 412 kts | 243° |
| 2026-05-06 23:25 | -36.08398 | -60.59944 | 31692 ft | 414 kts | 243° |
| 2026-05-06 23:25 | -36.11371 | -60.66027 | 31682 ft | 414 kts | 245° |
| 2026-05-06 23:26 | -36.14118 | -60.72263 | 31689 ft | 412 kts | 249° |
| 2026-05-06 23:26 | -36.15803 | -60.78898 | 31680 ft | 405 kts | 260° |
| 2026-05-06 23:27 | -36.18076 | -60.85341 | 31696 ft | 416 kts | 244° |
| 2026-05-06 23:27 | -36.21399 | -60.91257 | 31695 ft | 420 kts | 240° |
| 2026-05-06 23:28 | -36.24796 | -60.97134 | 31695 ft | 421 kts | 241° |
| 2026-05-06 23:28 | -36.28169 | -61.03064 | 31697 ft | 422 kts | 241° |
| 2026-05-06 23:29 | -36.31549 | -61.09011 | 31702 ft | 423 kts | 241° |
| 2026-05-06 23:29 | -36.34927 | -61.14978 | 31699 ft | 424 kts | 242° |
| 2026-05-06 23:30 | -36.38263 | -61.20991 | 31704 ft | 425 kts | 242° |
| 2026-05-06 23:30 | -36.41903 | -61.26812 | 31701 ft | 431 kts | 236° |
| 2026-05-06 23:31 | -36.45933 | -61.32311 | 31709 ft | 432 kts | 235° |
| 2026-05-06 23:31 | -36.49995 | -61.37827 | 31702 ft | 434 kts | 235° |
| 2026-05-06 23:32 | -36.54058 | -61.43348 | 31712 ft | 434 kts | 235° |
| 2026-05-06 23:32 | -36.58117 | -61.48896 | 31693 ft | 434 kts | 235° |
| 2026-05-06 23:33 | -36.62169 | -61.54456 | 31709 ft | 434 kts | 236° |
| 2026-05-06 23:33 | -36.66220 | -61.60026 | 31692 ft | 435 kts | 236° |
| 2026-05-06 23:34 | -36.70280 | -61.65610 | 31703 ft | 436 kts | 236° |
| 2026-05-06 23:34 | -36.74338 | -61.71195 | 31693 ft | 436 kts | 236° |
| 2026-05-06 23:35 | -36.78407 | -61.76800 | 31706 ft | 437 kts | 236° |
| 2026-05-06 23:35 | -36.82478 | -61.82410 | 31698 ft | 437 kts | 236° |
| 2026-05-06 23:36 | -36.86555 | -61.88032 | 31696 ft | 438 kts | 236° |
| 2026-05-06 23:36 | -36.90643 | -61.93670 | 31827 ft | 440 kts | 236° |
| 2026-05-06 23:36 | -36.92700 | -61.96514 | 31700 ft | 445 kts | 236° |
| 2026-05-06 23:37 | -36.94776 | -61.99391 | 31701 ft | 447 kts | 236° |
| 2026-05-06 23:37 | -36.98940 | -62.05172 | 31697 ft | 450 kts | 236° |
| 2026-05-06 23:38 | -37.03130 | -62.11001 | 31696 ft | 453 kts | 236° |
| 2026-05-06 23:38 | -37.07344 | -62.16872 | 31699 ft | 456 kts | 236° |
| 2026-05-06 23:39 | -37.11581 | -62.22787 | 31701 ft | 458 kts | 236° |
| 2026-05-06 23:39 | -37.15839 | -62.28741 | 31701 ft | 461 kts | 236° |
| 2026-05-06 23:40 | -37.20111 | -62.34729 | 31707 ft | 464 kts | 235° |
| 2026-05-06 23:40 | -37.24414 | -62.40769 | 31706 ft | 466 kts | 235° |
| 2026-05-06 23:41 | -37.28725 | -62.46832 | 31707 ft | 469 kts | 235° |
| 2026-05-06 23:41 | -37.33073 | -62.52960 | 31707 ft | 471 kts | 235° |
| 2026-05-06 23:42 | -37.37427 | -62.59108 | 31688 ft | 473 kts | 235° |
| 2026-05-06 23:42 | -37.41806 | -62.65295 | 31696 ft | 475 kts | 234° |
| 2026-05-06 23:43 | -37.46197 | -62.71499 | 31706 ft | 477 kts | 234° |
| 2026-05-06 23:43 | -37.50609 | -62.77742 | 31706 ft | 479 kts | 234° |
| 2026-05-06 23:44 | -37.55030 | -62.84008 | 31702 ft | 480 kts | 234° |
| 2026-05-06 23:44 | -37.59464 | -62.90300 | 31715 ft | 481 kts | 234° |
| 2026-05-06 23:45 | -37.63893 | -62.96630 | 31711 ft | 483 kts | 234° |
| 2026-05-06 23:45 | -37.68328 | -63.02969 | 31713 ft | 484 kts | 234° |
| 2026-05-06 23:46 | -37.72779 | -63.09338 | 31717 ft | 485 kts | 234° |
| 2026-05-06 23:46 | -37.77233 | -63.15719 | 31709 ft | 485 kts | 234° |
| 2026-05-06 23:47 | -37.81673 | -63.22083 | 31708 ft | 483 kts | 234° |
| 2026-05-06 23:47 | -37.86102 | -63.28432 | 31715 ft | 482 kts | 234° |
| 2026-05-06 23:48 | -37.90507 | -63.34783 | 31716 ft | 480 kts | 234° |
| 2026-05-06 23:48 | -37.94896 | -63.41146 | 31710 ft | 480 kts | 234° |
| 2026-05-06 23:49 | -37.99268 | -63.47491 | 31706 ft | 479 kts | 234° |
| 2026-05-06 23:49 | -38.03637 | -63.53832 | 31708 ft | 478 kts | 234° |
| 2026-05-06 23:50 | -38.08001 | -63.60167 | 31712 ft | 477 kts | 233° |
| 2026-05-06 23:50 | -38.14528 | -63.69647 | 31707 ft | 476 kts | 233° |
| 2026-05-06 23:51 | -38.18889 | -63.75984 | 31704 ft | 476 kts | 233° |
| 2026-05-06 23:51 | -38.23230 | -63.82295 | 31703 ft | 476 kts | 233° |
| 2026-05-06 23:52 | -38.27578 | -63.88625 | 31706 ft | 476 kts | 233° |
| 2026-05-06 23:52 | -38.32006 | -63.94875 | 31704 ft | 477 kts | 232° |
| 2026-05-06 23:53 | -38.36461 | -64.01104 | 31704 ft | 477 kts | 232° |
| 2026-05-06 23:53 | -38.40920 | -64.07342 | 31707 ft | 477 kts | 232° |
| 2026-05-06 23:54 | -38.45367 | -64.13583 | 31708 ft | 476 kts | 233° |
| 2026-05-06 23:54 | -38.49788 | -64.19869 | 31712 ft | 476 kts | 233° |
| 2026-05-06 23:55 | -38.54193 | -64.26150 | 31714 ft | 476 kts | 233° |
| 2026-05-06 23:55 | -38.58602 | -64.32458 | 31717 ft | 476 kts | 233° |
| 2026-05-06 23:56 | -38.63004 | -64.38763 | 31713 ft | 476 kts | 233° |
| 2026-05-06 23:56 | -38.67400 | -64.45079 | 31724 ft | 476 kts | 233° |
| 2026-05-06 23:57 | -38.71783 | -64.51418 | 31719 ft | 476 kts | 233° |
| 2026-05-06 23:57 | -38.76162 | -64.57756 | 31726 ft | 476 kts | 233° |
| 2026-05-06 23:58 | -38.80537 | -64.64113 | 31726 ft | 476 kts | 234° |
| 2026-05-06 23:58 | -38.84888 | -64.70482 | 31729 ft | 476 kts | 234° |
| 2026-05-06 23:59 | -38.89223 | -64.76865 | 31718 ft | 476 kts | 234° |
| 2026-05-06 23:59 | -38.93548 | -64.83267 | 31723 ft | 475 kts | 234° |
| 2026-05-07 00:00 | -38.97856 | -64.89688 | 31726 ft | 475 kts | 234° |
| 2026-05-07 00:00 | -39.02137 | -64.96141 | 31723 ft | 475 kts | 234° |
| 2026-05-07 00:01 | -39.06318 | -65.02684 | 31730 ft | 474 kts | 235° |
| 2026-05-07 00:01 | -39.10494 | -65.09250 | 31728 ft | 475 kts | 235° |
| 2026-05-07 00:02 | -39.14628 | -65.15854 | 31727 ft | 474 kts | 237° |
| 2026-05-07 00:02 | -39.18661 | -65.22539 | 31723 ft | 473 kts | 238° |
| 2026-05-07 00:03 | -39.22611 | -65.29312 | 31716 ft | 473 kts | 239° |
| 2026-05-07 00:03 | -39.26414 | -65.36213 | 31717 ft | 472 kts | 240° |
| 2026-05-07 00:04 | -39.29952 | -65.43311 | 31715 ft | 469 kts | 244° |
| 2026-05-07 00:04 | -39.32860 | -65.50754 | 31709 ft | 462 kts | 254° |
| 2026-05-07 00:05 | -39.34197 | -65.58690 | 31716 ft | 448 kts | 272° |
| 2026-05-07 00:05 | -39.35259 | -65.66606 | 31715 ft | 462 kts | 250° |
| 2026-05-07 00:06 | -39.38872 | -65.73560 | 31712 ft | 474 kts | 234° |
| 2026-05-07 00:06 | -39.43454 | -65.79719 | 31714 ft | 477 kts | 230° |
| 2026-05-07 00:07 | -39.48099 | -65.85808 | 31720 ft | 476 kts | 231° |
| 2026-05-07 00:07 | -39.52589 | -65.92071 | 31719 ft | 475 kts | 232° |
| 2026-05-07 00:08 | -39.57068 | -65.98357 | 31722 ft | 476 kts | 232° |
| 2026-05-07 00:08 | -39.61562 | -66.04642 | 31730 ft | 476 kts | 232° |
| 2026-05-07 00:09 | -39.66054 | -66.10933 | 31734 ft | 477 kts | 232° |
| 2026-05-07 00:09 | -39.70553 | -66.17242 | 31729 ft | 478 kts | 232° |
| 2026-05-07 00:10 | -39.75049 | -66.23574 | 31734 ft | 478 kts | 232° |
| 2026-05-07 00:10 | -39.79536 | -66.29951 | 31740 ft | 479 kts | 232° |
| 2026-05-07 00:11 | -39.84016 | -66.36352 | 31739 ft | 480 kts | 232° |
| 2026-05-07 00:11 | -39.88482 | -66.42788 | 31741 ft | 480 kts | 232° |
| 2026-05-07 00:12 | -39.92956 | -66.49240 | 31741 ft | 481 kts | 232° |
| 2026-05-07 00:12 | -39.97445 | -66.55709 | 31744 ft | 482 kts | 232° |
| 2026-05-07 00:13 | -40.01938 | -66.62191 | 31744 ft | 483 kts | 232° |
| 2026-05-07 00:13 | -40.06440 | -66.68693 | 31745 ft | 484 kts | 232° |
| 2026-05-07 00:14 | -40.10942 | -66.75200 | 31740 ft | 484 kts | 232° |
| 2026-05-07 00:14 | -40.15453 | -66.81730 | 31743 ft | 485 kts | 232° |
| 2026-05-07 00:15 | -40.19961 | -66.88264 | 31739 ft | 485 kts | 232° |
| 2026-05-07 00:15 | -40.24469 | -66.94806 | 31745 ft | 485 kts | 232° |
| 2026-05-07 00:16 | -40.28979 | -67.01365 | 31746 ft | 486 kts | 231° |
| 2026-05-07 00:16 | -40.33500 | -67.07926 | 31740 ft | 486 kts | 231° |
| 2026-05-07 00:17 | -40.38024 | -67.14499 | 31748 ft | 486 kts | 231° |
| 2026-05-07 00:17 | -40.42539 | -67.21082 | 31750 ft | 486 kts | 232° |
| 2026-05-07 00:18 | -40.47020 | -67.27674 | 31751 ft | 487 kts | 231° |
| 2026-05-07 00:18 | -40.51512 | -67.34287 | 31751 ft | 487 kts | 231° |
| 2026-05-07 00:19 | -40.56015 | -67.40923 | 31759 ft | 487 kts | 231° |
| 2026-05-07 00:19 | -40.60491 | -67.47543 | 31764 ft | 487 kts | 231° |
| 2026-05-07 00:20 | -40.64984 | -67.54174 | 31765 ft | 487 kts | 231° |
| 2026-05-07 00:20 | -40.68339 | -67.59128 | 31771 ft | 487 kts | 231° |